Time;durP1;ratioP1;P1;durP2;ratioP2;P2;SDS_P1;SDS_P2;PMS_P1;PMS_P2;Temp;Humidity;BMP_temperature;BMP_pressure;BME280_temperature;BME280_humidity;BME280_pressure;Samples;Min_cycle;Max_cycle;Signal;HPM_P1;HPM_P2
2023/01/21 00:01:39;;;;;;;9.13;6.22;;;;;;;;;;5031262;28;20028;-76
2023/01/21 00:04:05;;;;;;;8.27;5.60;;;;;;;;;;5036996;28;20068;-76
2023/01/21 00:06:31;;;;;;;8.95;4.80;;;;;;;;;;5043785;28;20414;-76
2023/01/21 00:08:58;;;;;;;6.90;4.15;;;;;;;;;;5039420;28;20506;-76
2023/01/21 00:11:24;;;;;;;5.47;4.05;;;;;;;;;;5042047;28;20060;-76
2023/01/21 00:13:50;;;;;;;5.50;4.20;;;;;;;;;;5043077;28;20040;-77
2023/01/21 00:16:16;;;;;;;5.07;3.75;;;;;;;;;;5040036;28;20414;-76
2023/01/21 00:18:42;;;;;;;5.13;3.00;;;;;;;;;;5033627;28;20045;-77
2023/01/21 00:21:09;;;;;;;5.32;3.22;;;;;;;;;;5037447;28;20063;-75
2023/01/21 00:23:35;;;;;;;4.65;3.30;;;;;;;;;;5034030;28;20026;-76
2023/01/21 00:26:02;;;;;;;3.70;2.72;;;;;;;;;;5036319;28;20029;-77
2023/01/21 00:28:28;;;;;;;4.82;3.28;;;;;;;;;;5042820;28;20025;-76
2023/01/21 00:31:02;;;;;;;3.25;2.50;;;;;;;;;;5042999;28;20025;-76
2023/01/21 00:33:28;;;;;;;3.38;2.50;;;;;;;;;;5038483;28;20705;-76
2023/01/21 00:35:57;;;;;;;4.28;2.58;;;;;;;;;;5041627;28;20023;-76
2023/01/21 00:38:24;;;;;;;5.60;3.08;;;;;;;;;;5036448;28;20435;-77
2023/01/21 00:40:50;;;;;;;3.58;2.67;;;;;;;;;;5039271;28;20041;-76
2023/01/21 00:43:16;;;;;;;3.40;2.80;;;;;;;;;;5045998;28;20108;-76
2023/01/21 00:45:42;;;;;;;4.30;2.63;;;;;;;;;;5042098;28;20029;-76
2023/01/21 00:48:08;;;;;;;3.13;2.80;;;;;;;;;;5038888;28;20064;-76
2023/01/21 00:50:34;;;;;;;2.88;2.55;;;;;;;;;;5061873;28;20021;-76
2023/01/21 00:53:00;;;;;;;5.85;3.20;;;;;;;;;;5042551;28;20425;-76
2023/01/21 00:55:26;;;;;;;3.80;3.38;;;;;;;;;;5034287;28;20039;-76
2023/01/21 00:57:54;;;;;;;6.97;3.00;;;;;;;;;;5047618;28;20103;-76
2023/01/21 01:00:20;;;;;;;3.65;3.30;;;;;;;;;;5038018;28;20021;-76
2023/01/21 01:02:46;;;;;;;4.55;3.47;;;;;;;;;;5036811;28;20041;-76
2023/01/21 01:05:13;;;;;;;7.80;6.63;;;;;;;;;;5042039;28;20112;-76
2023/01/21 01:07:42;;;;;;;8.38;6.38;;;;;;;;;;5040823;28;20028;-76
2023/01/21 01:10:08;;;;;;;18.40;10.70;;;;;;;;;;5037810;28;20477;-76
2023/01/21 01:12:34;;;;;;;8.40;7.18;;;;;;;;;;5036143;28;20136;-76
2023/01/21 01:15:00;;;;;;;7.90;5.50;;;;;;;;;;5030537;28;20029;-76
2023/01/21 01:17:27;;;;;;;5.18;3.45;;;;;;;;;;5033461;28;20041;-76
2023/01/21 01:19:53;;;;;;;3.13;2.65;;;;;;;;;;5035064;28;20045;-76
2023/01/21 01:22:19;;;;;;;3.03;2.70;;;;;;;;;;5038200;28;20028;-76
2023/01/21 01:24:45;;;;;;;3.67;2.83;;;;;;;;;;5040929;28;20040;-76
2023/01/21 01:27:11;;;;;;;5.53;3.10;;;;;;;;;;5034340;28;20021;-78
2023/01/21 01:29:37;;;;;;;4.07;3.67;;;;;;;;;;5034723;28;20578;-76
2023/01/21 01:32:03;;;;;;;5.50;2.63;;;;;;;;;;5031804;28;20044;-76
2023/01/21 01:34:29;;;;;;;3.35;3.05;;;;;;;;;;5037045;28;20087;-76
2023/01/21 01:36:56;;;;;;;6.65;4.35;;;;;;;;;;5036606;28;20029;-76
2023/01/21 01:39:22;;;;;;;4.55;3.40;;;;;;;;;;5035811;28;20021;-76
2023/01/21 01:41:48;;;;;;;3.50;2.70;;;;;;;;;;5034258;28;20161;-75
2023/01/21 01:44:32;;;;;;;4.85;2.88;;;;;;;;;;5035339;28;20509;-76
2023/01/21 01:46:59;;;;;;;4.43;2.78;;;;;;;;;;5044725;28;20029;-76
2023/01/21 01:49:25;;;;;;;3.20;2.63;;;;;;;;;;5045875;28;20142;-76
2023/01/21 01:51:58;;;;;;;3.58;3.10;;;;;;;;;;5040446;28;20017;-76
2023/01/21 01:54:28;;;;;;;2.90;2.60;;;;;;;;;;5038175;28;20037;-76
2023/01/21 01:56:56;;;;;;;6.88;5.32;;;;;;;;;;5040615;28;20079;-76
2023/01/21 01:59:23;;;;;;;11.85;6.90;;;;;;;;;;5040473;28;20029;-75
2023/01/21 02:01:49;;;;;;;23.17;12.27;;;;;;;;;;5035729;28;20894;-76
2023/01/21 02:04:20;;;;;;;24.20;10.73;;;;;;;;;;5042191;28;20026;-76
2023/01/21 02:06:47;;;;;;;17.92;6.85;;;;;;;;;;5038522;28;20029;-76
2023/01/21 02:09:13;;;;;;;11.07;5.00;;;;;;;;;;5040677;28;20442;-76
2023/01/21 02:11:39;;;;;;;6.13;3.47;;;;;;;;;;5038473;28;20040;-76
2023/01/21 02:14:05;;;;;;;6.15;3.05;;;;;;;;;;5039857;28;20083;-76
2023/01/21 02:16:38;;;;;;;5.63;3.03;;;;;;;;;;5049658;28;20036;-76
2023/01/21 02:19:13;;;;;;;4.13;2.50;;;;;;;;;;5036289;28;20383;-76
2023/01/21 02:21:50;;;;;;;4.38;2.72;;;;;;;;;;5036010;28;20040;-76
2023/01/21 02:24:22;;;;;;;4.15;2.75;;;;;;;;;;5038893;28;20373;-75
2023/01/21 02:27:17;;;;;;;4.03;3.10;;;;;;;;;;5037744;28;20028;-74
2023/01/21 02:29:43;;;;;;;5.70;3.92;;;;;;;;;;5044174;28;20163;-76
2023/01/21 02:32:28;;;;;;;9.73;3.95;;;;;;;;;;5037538;28;20025;-76
2023/01/21 02:34:54;;;;;;;4.00;2.80;;;;;;;;;;5039229;28;20108;-76
2023/01/21 02:37:46;;;;;;;8.30;4.72;;;;;;;;;;5032696;28;20040;-76
2023/01/21 02:40:36;;;;;;;6.47;3.20;;;;;;;;;;5060722;28;20702;-76
2023/01/21 02:43:22;;;;;;;3.05;2.45;;;;;;;;;;5035309;28;20068;-76
2023/01/21 02:46:02;;;;;;;3.80;2.70;;;;;;;;;;5024365;28;20493;-76
2023/01/21 02:48:31;;;;;;;3.08;2.63;;;;;;;;;;5033489;28;20479;-76
2023/01/21 02:50:57;;;;;;;2.58;2.38;;;;;;;;;;5034621;28;20029;-76
2023/01/21 02:53:30;;;;;;;3.92;2.40;;;;;;;;;;5035599;28;20398;-76
2023/01/21 02:55:58;;;;;;;2.92;2.30;;;;;;;;;;5038173;28;20021;-76
2023/01/21 02:58:27;;;;;;;3.55;2.33;;;;;;;;;;5032038;28;20025;-76
2023/01/21 03:00:56;;;;;;;3.20;2.13;;;;;;;;;;5032898;28;20018;-76
2023/01/21 03:03:22;;;;;;;3.58;2.40;;;;;;;;;;5035815;28;20029;-76
2023/01/21 03:05:48;;;;;;;3.35;2.47;;;;;;;;;;5035159;28;20013;-76
2023/01/21 03:08:14;;;;;;;4.50;2.70;;;;;;;;;;5043365;28;20028;-76
2023/01/21 03:10:43;;;;;;;3.00;2.50;;;;;;;;;;5031205;28;20033;-76
2023/01/21 03:16:55;;;;;;;4.32;2.33;;;;;;;;;;5050301;28;20033;-76
2023/01/21 03:18:49;;;;;;;2.20;2.00;;;;;;;;;;5034090;28;20162;-76
2023/01/21 03:21:18;;;;;;;2.40;2.00;;;;;;;;;;5035040;28;20048;-76
2023/01/21 03:23:46;;;;;;;4.28;2.30;;;;;;;;;;5042129;28;20112;-76
2023/01/21 03:26:14;;;;;;;3.65;2.83;;;;;;;;;;5037402;28;20052;-76
2023/01/21 03:28:49;;;;;;;2.80;2.15;;;;;;;;;;5028894;28;20477;-76
2023/01/21 03:31:15;;;;;;;;;;;;;;;;;;5041316;28;20049;-76
2023/01/21 03:33:42;;;;;;;;;;;;;;;;;;5037127;28;20277;-75
2023/01/21 03:36:11;;;;;;;4.97;2.17;;;;;;;;;;5040428;28;19904;-76
2023/01/21 03:38:41;;;;;;;5.13;2.60;;;;;;;;;;5036690;28;20181;-76
2023/01/21 03:41:13;;;;;;;5.97;2.35;;;;;;;;;;5031806;28;20037;-76
2023/01/21 03:43:39;;;;;;;6.55;2.70;;;;;;;;;;5044164;28;20021;-76
2023/01/21 03:46:12;;;;;;;2.90;2.55;;;;;;;;;;5040085;28;20063;-76
2023/01/21 03:48:44;;;;;;;4.32;2.35;;;;;;;;;;5043671;28;20084;-76
2023/01/21 03:51:13;;;;;;;3.53;2.50;;;;;;;;;;5035837;28;20021;-76
2023/01/21 03:53:39;;;;;;;4.22;2.92;;;;;;;;;;5035685;28;20079;-76
2023/01/21 03:56:05;;;;;;;3.65;2.85;;;;;;;;;;5032726;28;20061;-76
2023/01/21 03:58:31;;;;;;;5.13;2.85;;;;;;;;;;5040229;28;20036;-76
2023/01/21 04:00:57;;;;;;;4.38;2.67;;;;;;;;;;5047621;28;20052;-76
2023/01/21 04:03:23;;;;;;;5.18;2.92;;;;;;;;;;5032735;28;20107;-76
2023/01/21 04:05:49;;;;;;;3.65;2.50;;;;;;;;;;5035248;28;20026;-76
2023/01/21 04:08:15;;;;;;;6.00;2.50;;;;;;;;;;5031677;28;20121;-77
2023/01/21 04:10:41;;;;;;;3.72;2.22;;;;;;;;;;5035600;28;20021;-76
2023/01/21 04:13:07;;;;;;;6.57;2.00;;;;;;;;;;5043969;28;20377;-75
2023/01/21 04:15:33;;;;;;;3.35;2.20;;;;;;;;;;5043326;28;20029;-76
2023/01/21 04:18:00;;;;;;;2.00;1.80;;;;;;;;;;5041837;28;20025;-76
2023/01/21 04:20:26;;;;;;;3.17;2.28;;;;;;;;;;5044719;28;20049;-76
2023/01/21 04:22:52;;;;;;;2.10;1.90;;;;;;;;;;5033380;28;20041;-76
2023/01/21 04:25:18;;;;;;;4.30;2.13;;;;;;;;;;5042584;28;20018;-76
2023/01/21 04:27:44;;;;;;;3.28;2.17;;;;;;;;;;5041103;28;20377;-76
2023/01/21 04:30:10;;;;;;;3.22;2.00;;;;;;;;;;5043338;28;20032;-76
2023/01/21 04:32:36;;;;;;;3.13;2.17;;;;;;;;;;5035834;28;20029;-76
2023/01/21 04:35:02;;;;;;;4.85;2.03;;;;;;;;;;5048056;28;20024;-76
2023/01/21 04:37:28;;;;;;;6.43;2.38;;;;;;;;;;5038712;28;20044;-76
2023/01/21 04:39:54;;;;;;;3.28;1.90;;;;;;;;;;5039897;28;20033;-76
2023/01/21 04:42:20;;;;;;;1.80;1.70;;;;;;;;;;5038180;28;20097;-76
2023/01/21 04:44:47;;;;;;;3.03;1.80;;;;;;;;;;5037213;28;20017;-76
2023/01/21 04:47:13;;;;;;;2.40;2.20;;;;;;;;;;5043955;28;20041;-75
2023/01/21 04:49:39;;;;;;;4.88;2.10;;;;;;;;;;5064173;28;20025;-76
2023/01/21 04:52:05;;;;;;;4.43;2.38;;;;;;;;;;5040969;28;20029;-76
2023/01/21 04:54:31;;;;;;;2.83;1.90;;;;;;;;;;5032759;28;20033;-76
2023/01/21 04:56:58;;;;;;;4.50;2.00;;;;;;;;;;5045295;28;20041;-76
2023/01/21 04:59:24;;;;;;;2.08;1.90;;;;;;;;;;5038884;28;20031;-76
2023/01/21 05:01:50;;;;;;;2.25;2.05;;;;;;;;;;5047454;28;20823;-76
2023/01/21 05:04:16;;;;;;;2.55;1.95;;;;;;;;;;5045777;28;20070;-76
2023/01/21 05:06:42;;;;;;;2.53;1.98;;;;;;;;;;5049978;28;20029;-76
2023/01/21 05:09:08;;;;;;;2.75;2.15;;;;;;;;;;5044853;28;20021;-76
2023/01/21 05:11:34;;;;;;;4.07;2.10;;;;;;;;;;5039563;28;20025;-76
2023/01/21 05:14:00;;;;;;;5.25;1.92;;;;;;;;;;5040827;28;20037;-76
2023/01/21 05:16:26;;;;;;;3.17;2.05;;;;;;;;;;5039252;28;20557;-76
2023/01/21 05:18:53;;;;;;;2.38;1.90;;;;;;;;;;5034258;28;20033;-76
2023/01/21 05:21:20;;;;;;;2.97;1.95;;;;;;;;;;5039782;28;20056;-75
2023/01/21 05:23:46;;;;;;;3.28;1.70;;;;;;;;;;5032205;28;20108;-77
2023/01/21 05:26:12;;;;;;;4.65;2.22;;;;;;;;;;5040161;28;20331;-76
2023/01/21 05:28:38;;;;;;;2.28;1.70;;;;;;;;;;5046580;28;20032;-76
2023/01/21 05:31:04;;;;;;;2.40;1.90;;;;;;;;;;5039965;28;20033;-76
2023/01/21 05:33:31;;;;;;;3.08;1.90;;;;;;;;;;5034927;28;20039;-76
2023/01/21 05:35:57;;;;;;;2.45;1.85;;;;;;;;;;5038928;28;20095;-76
2023/01/21 05:38:23;;;;;;;2.17;1.70;;;;;;;;;;5028235;28;20393;-76
2023/01/21 05:40:49;;;;;;;1.90;1.70;;;;;;;;;;5041052;28;20021;-76
2023/01/21 05:43:15;;;;;;;1.98;1.70;;;;;;;;;;5037810;28;20029;-76
2023/01/21 05:45:41;;;;;;;2.72;1.65;;;;;;;;;;5041920;28;20880;-76
2023/01/21 05:48:07;;;;;;;2.17;1.98;;;;;;;;;;5039102;28;20041;-77
2023/01/21 05:50:34;;;;;;;3.10;1.75;;;;;;;;;;5032210;28;20025;-76
2023/01/21 05:53:00;;;;;;;2.30;1.80;;;;;;;;;;5035717;28;20017;-76
2023/01/21 05:55:26;;;;;;;4.43;1.95;;;;;;;;;;5035964;28;20029;-77
2023/01/21 05:57:52;;;;;;;2.00;1.80;;;;;;;;;;5042304;28;20021;-76
2023/01/21 06:00:18;;;;;;;2.30;2.10;;;;;;;;;;5045086;28;20021;-75
2023/01/21 06:02:44;;;;;;;3.13;1.50;;;;;;;;;;5036623;28;20065;-76
2023/01/21 06:05:10;;;;;;;2.38;1.75;;;;;;;;;;5042141;28;20075;-75
2023/01/21 06:07:36;;;;;;;2.90;1.60;;;;;;;;;;5037065;28;20425;-76
2023/01/21 06:10:03;;;;;;;3.42;1.98;;;;;;;;;;5044498;28;20087;-76
2023/01/21 06:12:29;;;;;;;2.47;1.60;;;;;;;;;;5038129;28;20370;-76
2023/01/21 06:14:55;;;;;;;2.90;1.75;;;;;;;;;;5038605;28;20033;-76
2023/01/21 06:17:22;;;;;;;2.20;1.73;;;;;;;;;;5039007;28;20491;-76
2023/01/21 06:19:48;;;;;;;3.17;1.60;;;;;;;;;;5038361;28;20390;-76
2023/01/21 06:22:18;;;;;;;1.55;1.45;;;;;;;;;;5039451;28;20025;-76
2023/01/21 06:24:45;;;;;;;2.22;1.60;;;;;;;;;;5046953;28;20423;-76
2023/01/21 06:27:11;;;;;;;4.45;1.80;;;;;;;;;;5041251;28;20032;-75
2023/01/21 06:29:37;;;;;;;3.60;1.60;;;;;;;;;;5046813;28;20033;-76
2023/01/21 06:32:04;;;;;;;3.28;1.70;;;;;;;;;;5043558;28;20687;-74
2023/01/21 06:34:30;;;;;;;3.05;1.75;;;;;;;;;;5043136;28;20402;-76
2023/01/21 06:36:56;;;;;;;2.50;1.60;;;;;;;;;;5040193;28;20065;-76
2023/01/21 06:39:22;;;;;;;1.90;1.70;;;;;;;;;;5034971;28;20031;-76
2023/01/21 06:41:48;;;;;;;4.30;2.00;;;;;;;;;;5035101;28;20035;-76
2023/01/21 06:44:14;;;;;;;4.95;1.83;;;;;;;;;;5044221;28;20416;-76
2023/01/21 06:46:40;;;;;;;1.77;1.65;;;;;;;;;;5036675;28;20035;-76
2023/01/21 06:49:06;;;;;;;2.85;2.20;;;;;;;;;;5032622;28;20512;-76
2023/01/21 06:51:32;;;;;;;4.97;2.03;;;;;;;;;;5031708;28;20040;-76
2023/01/21 06:53:58;;;;;;;3.97;2.10;;;;;;;;;;5034384;28;20683;-76
2023/01/21 06:56:25;;;;;;;5.20;1.80;;;;;;;;;;5036777;28;20044;-76
2023/01/21 06:58:51;;;;;;;3.58;1.90;;;;;;;;;;5033707;28;20029;-76
2023/01/21 07:01:17;;;;;;;5.80;2.17;;;;;;;;;;5033231;28;20021;-76
2023/01/21 07:03:43;;;;;;;3.60;2.03;;;;;;;;;;5034927;28;20036;-75
2023/01/21 07:06:09;;;;;;;2.83;1.85;;;;;;;;;;5046103;28;20021;-75
2023/01/21 07:08:35;;;;;;;3.88;2.17;;;;;;;;;;5048490;28;20021;-76
2023/01/21 07:11:01;;;;;;;3.67;1.95;;;;;;;;;;5041475;28;20017;-76
2023/01/21 07:13:27;;;;;;;3.17;2.10;;;;;;;;;;5041640;28;20426;-76
2023/01/21 07:15:58;;;;;;;3.05;2.28;;;;;;;;;;5046033;28;20164;-76
2023/01/21 07:18:24;;;;;;;3.67;2.40;;;;;;;;;;5044542;28;20033;-76
2023/01/21 07:20:50;;;;;;;6.18;3.67;;;;;;;;;;5045967;28;20394;-76
2023/01/21 07:23:16;;;;;;;4.70;2.95;;;;;;;;;;5037695;28;20118;-76
2023/01/21 07:25:42;;;;;;;6.03;2.90;;;;;;;;;;5044884;28;20510;-77
2023/01/21 07:28:09;;;;;;;7.53;3.05;;;;;;;;;;5039743;28;20124;-77
2023/01/21 07:30:35;;;;;;;6.63;3.15;;;;;;;;;;5044129;28;20525;-77
2023/01/21 07:33:05;;;;;;;7.15;3.42;;;;;;;;;;5042072;28;20075;-76
2023/01/21 07:35:32;;;;;;;6.72;3.25;;;;;;;;;;5043327;28;20037;-76
2023/01/21 07:37:58;;;;;;;6.20;2.30;;;;;;;;;;5036501;28;20765;-76
2023/01/21 07:40:24;;;;;;;4.32;2.60;;;;;;;;;;5041755;28;20090;-75
2023/01/21 07:42:51;;;;;;;7.63;3.08;;;;;;;;;;5048738;28;20150;-77
2023/01/21 07:45:18;;;;;;;5.70;2.78;;;;;;;;;;5045743;28;20041;-75
2023/01/21 07:47:44;;;;;;;6.25;2.40;;;;;;;;;;5043363;28;20416;-76
2023/01/21 07:50:10;;;;;;;7.22;2.60;;;;;;;;;;5040012;28;20120;-76
2023/01/21 07:52:36;;;;;;;4.93;2.50;;;;;;;;;;5040287;28;20816;-77
2023/01/21 07:55:03;;;;;;;3.40;2.20;;;;;;;;;;5038023;28;20056;-78
2023/01/21 07:57:29;;;;;;;4.88;2.90;;;;;;;;;;5040916;28;20029;-76
2023/01/21 07:59:55;;;;;;;8.07;3.30;;;;;;;;;;5047634;28;20022;-76
2023/01/21 08:02:21;;;;;;;4.82;3.78;;;;;;;;;;5040351;28;20063;-77
2023/01/21 08:04:48;;;;;;;5.43;2.90;;;;;;;;;;5042923;28;20021;-77
2023/01/21 08:07:14;;;;;;;4.68;2.10;;;;;;;;;;5044263;28;20021;-76
2023/01/21 08:09:40;;;;;;;4.40;2.20;;;;;;;;;;5040122;28;20024;-76
2023/01/21 08:12:07;;;;;;;6.13;2.97;;;;;;;;;;5039658;28;20033;-77
2023/01/21 08:14:33;;;;;;;3.45;2.00;;;;;;;;;;5039445;28;20038;-76
2023/01/21 08:16:59;;;;;;;8.77;3.20;;;;;;;;;;5039881;28;20140;-77
2023/01/21 08:19:26;;;;;;;4.88;2.20;;;;;;;;;;5044296;28;20613;-76
2023/01/21 08:21:52;;;;;;;2.70;2.00;;;;;;;;;;5036350;28;20037;-76
2023/01/21 08:24:18;;;;;;;3.25;1.95;;;;;;;;;;5040082;28;20029;-76
2023/01/21 08:26:44;;;;;;;5.38;2.47;;;;;;;;;;5036211;28;20053;-76
2023/01/21 08:29:10;;;;;;;3.95;1.63;;;;;;;;;;5041104;28;20400;-76
2023/01/21 08:31:37;;;;;;;2.10;1.83;;;;;;;;;;5036615;28;20033;-76
2023/01/21 08:34:03;;;;;;;6.03;2.53;;;;;;;;;;5047947;28;20032;-76
2023/01/21 08:36:29;;;;;;;3.13;1.73;;;;;;;;;;5041834;28;20033;-76
2023/01/21 08:39:04;;;;;;;3.55;1.85;;;;;;;;;;5035855;28;20086;-76
2023/01/21 08:41:31;;;;;;;4.45;1.98;;;;;;;;;;5035319;28;20029;-77
2023/01/21 08:43:57;;;;;;;5.50;1.83;;;;;;;;;;5040957;28;20033;-77
2023/01/21 08:46:23;;;;;;;3.08;2.08;;;;;;;;;;5049896;28;20025;-77
2023/01/21 08:48:50;;;;;;;8.70;2.70;;;;;;;;;;5034863;28;20032;-77
2023/01/21 08:51:16;;;;;;;2.15;1.95;;;;;;;;;;5039544;28;20051;-76
2023/01/21 08:53:42;;;;;;;3.58;2.15;;;;;;;;;;5035850;28;20524;-77
2023/01/21 08:56:08;;;;;;;5.18;2.10;;;;;;;;;;5042693;28;20030;-77
2023/01/21 08:58:35;;;;;;;6.95;2.65;;;;;;;;;;5037596;28;20592;-77
2023/01/21 09:01:07;;;;;;;3.28;2.25;;;;;;;;;;5041853;28;20033;-76
2023/01/21 09:03:33;;;;;;;3.38;2.00;;;;;;;;;;5040549;28;20089;-77
2023/01/21 09:06:01;;;;;;;4.32;2.45;;;;;;;;;;5036307;28;20370;-76
2023/01/21 09:08:27;;;;;;;3.97;2.30;;;;;;;;;;5041194;28;20107;-77
2023/01/21 09:10:59;;;;;;;4.93;2.05;;;;;;;;;;5045603;28;20486;-77
2023/01/21 09:13:26;;;;;;;8.30;2.20;;;;;;;;;;5037635;28;20061;-77
2023/01/21 09:15:52;;;;;;;4.15;2.30;;;;;;;;;;5046425;28;20083;-76
2023/01/21 09:18:18;;;;;;;6.28;2.17;;;;;;;;;;5041247;28;20060;-77
2023/01/21 09:20:44;;;;;;;2.72;2.00;;;;;;;;;;5041804;28;20061;-77
2023/01/21 09:23:23;;;;;;;2.60;2.10;;;;;;;;;;5039093;28;20075;-76
2023/01/21 09:26:09;;;;;;;3.33;1.90;;;;;;;;;;5040713;28;20025;-76
2023/01/21 09:28:36;;;;;;;5.55;2.17;;;;;;;;;;5037914;28;20049;-77
2023/01/21 09:31:04;;;;;;;7.15;2.30;;;;;;;;;;5044031;28;20397;-77
2023/01/21 09:33:31;;;;;;;3.22;2.28;;;;;;;;;;5046621;28;20021;-77
2023/01/21 09:35:58;;;;;;;3.83;2.30;;;;;;;;;;5039177;28;20041;-78
2023/01/21 09:38:25;;;;;;;4.80;2.30;;;;;;;;;;5034977;28;20029;-76
2023/01/21 09:40:52;;;;;;;2.95;2.35;;;;;;;;;;5038263;28;20029;-77
2023/01/21 09:43:21;;;;;;;4.75;2.42;;;;;;;;;;5039396;28;20028;-78
2023/01/21 09:45:47;;;;;;;5.63;2.95;;;;;;;;;;5037613;28;20048;-77
2023/01/21 09:48:16;;;;;;;3.35;2.30;;;;;;;;;;5038033;28;20479;-80
2023/01/21 09:50:44;;;;;;;2.55;2.30;;;;;;;;;;5037297;28;20029;-76
2023/01/21 09:53:20;;;;;;;4.93;2.42;;;;;;;;;;5035802;28;20151;-75
2023/01/21 09:55:47;;;;;;;5.72;2.42;;;;;;;;;;5033699;28;20036;-75
2023/01/21 09:58:17;;;;;;;3.30;2.55;;;;;;;;;;5034573;28;20152;-76
2023/01/21 10:00:46;;;;;;;5.25;2.28;;;;;;;;;;5041693;28;20077;-76
2023/01/21 10:03:12;;;;;;;5.63;2.53;;;;;;;;;;5038109;28;20719;-78
2023/01/21 10:05:45;;;;;;;4.78;2.40;;;;;;;;;;5035567;28;20729;-75
2023/01/21 10:08:30;;;;;;;3.95;2.40;;;;;;;;;;5037479;28;20029;-75
2023/01/21 10:10:59;;;;;;;3.47;2.58;;;;;;;;;;5036082;28;20025;-75
2023/01/21 10:13:28;;;;;;;3.78;2.42;;;;;;;;;;5041083;28;20033;-75
2023/01/21 10:16:02;;;;;;;5.45;2.45;;;;;;;;;;5039491;28;20039;-74
2023/01/21 10:18:30;;;;;;;3.77;2.43;;;;;;;;;;5038191;28;20513;-75
2023/01/21 10:20:58;;;;;;;3.03;2.42;;;;;;;;;;5043305;28;20099;-75
2023/01/21 10:23:28;;;;;;;3.60;2.13;;;;;;;;;;5043179;28;20055;-75
2023/01/21 10:25:55;;;;;;;2.80;2.40;;;;;;;;;;5040912;28;20489;-75
2023/01/21 10:28:25;;;;;;;3.65;2.47;;;;;;;;;;5040129;28;20473;-75
2023/01/21 10:30:53;;;;;;;3.63;2.40;;;;;;;;;;5039361;28;20469;-75
2023/01/21 10:33:23;;;;;;;3.50;2.40;;;;;;;;;;5040829;28;20029;-75
2023/01/21 10:35:52;;;;;;;4.63;2.20;;;;;;;;;;5038748;28;20036;-75
2023/01/21 10:38:28;;;;;;;3.40;2.33;;;;;;;;;;5035528;28;20901;-75
2023/01/21 10:41:10;;;;;;;3.72;2.55;;;;;;;;;;5041133;28;20024;-75
2023/01/21 10:43:49;;;;;;;3.67;2.50;;;;;;;;;;5042749;28;20717;-75
2023/01/21 10:46:28;;;;;;;3.35;2.60;;;;;;;;;;5037516;28;20025;-76
2023/01/21 10:49:06;;;;;;;3.60;2.60;;;;;;;;;;5036565;28;20059;-75
2023/01/21 10:51:45;;;;;;;5.30;2.83;;;;;;;;;;5035291;28;20029;-75
2023/01/21 10:54:35;;;;;;;4.30;2.58;;;;;;;;;;5040745;28;20441;-75
2023/01/21 10:57:29;;;;;;;7.40;3.13;;;;;;;;;;5031074;28;20540;-76
2023/01/21 10:59:57;;;;;;;4.55;2.80;;;;;;;;;;5040485;28;20105;-75
2023/01/21 11:02:31;;;;;;;8.05;3.65;;;;;;;;;;5038568;28;20040;-75
2023/01/21 11:04:58;;;;;;;4.55;3.00;;;;;;;;;;5040151;28;20032;-73
2023/01/21 11:07:25;;;;;;;5.97;4.07;;;;;;;;;;5040569;28;20021;-75
2023/01/21 11:09:51;;;;;;;4.03;2.55;;;;;;;;;;5042285;28;20022;-76
2023/01/21 11:12:18;;;;;;;3.15;2.30;;;;;;;;;;5038322;28;20025;-75
2023/01/21 11:14:56;;;;;;;3.63;2.20;;;;;;;;;;5039448;28;20025;-75
2023/01/21 11:17:32;;;;;;;3.15;2.30;;;;;;;;;;5034032;28;20028;-79
2023/01/21 11:19:59;;;;;;;3.92;2.55;;;;;;;;;;5035287;28;20175;-77
2023/01/21 11:22:28;;;;;;;4.32;2.65;;;;;;;;;;5031389;28;20573;-80
2023/01/21 11:24:54;;;;;;;3.38;2.60;;;;;;;;;;5036405;28;20038;-77
2023/01/21 11:27:40;;;;;;;5.57;3.42;;;;;;;;;;5035990;28;20543;-75
2023/01/21 11:30:07;;;;;;;7.20;3.80;;;;;;;;;;5036306;28;20376;-78
2023/01/21 11:32:33;;;;;;;8.13;4.47;;;;;;;;;;5038614;28;20121;-78
2023/01/21 11:35:09;;;;;;;7.53;3.30;;;;;;;;;;5039988;28;20029;-78
2023/01/21 11:37:36;;;;;;;7.90;4.35;;;;;;;;;;5034027;28;20068;-77
2023/01/21 11:40:11;;;;;;;8.55;3.60;;;;;;;;;;5037095;28;20299;-77
2023/01/21 11:42:47;;;;;;;7.47;4.57;;;;;;;;;;5034100;28;20473;-77
2023/01/21 11:45:39;;;;;;;4.22;2.70;;;;;;;;;;5032971;28;20032;-77
2023/01/21 11:48:21;;;;;;;6.43;3.13;;;;;;;;;;5031957;28;20045;-78
2023/01/21 11:50:47;;;;;;;6.22;3.22;;;;;;;;;;5035756;28;20086;-77
2023/01/21 11:53:16;;;;;;;5.93;3.15;;;;;;;;;;5038235;28;20033;-76
2023/01/21 11:55:47;;;;;;;3.25;2.80;;;;;;;;;;5041554;28;20053;-77
2023/01/21 11:58:19;;;;;;;6.22;2.50;;;;;;;;;;5032715;28;20037;-77
2023/01/21 12:00:47;;;;;;;4.97;2.53;;;;;;;;;;5038374;28;20082;-77
2023/01/21 12:03:21;;;;;;;4.97;2.95;;;;;;;;;;5042434;28;20068;-77
2023/01/21 12:05:51;;;;;;;7.47;2.72;;;;;;;;;;5034368;28;20036;-78
2023/01/21 12:08:24;;;;;;;2.78;2.42;;;;;;;;;;5042696;28;20047;-77
2023/01/21 12:10:52;;;;;;;6.00;2.40;;;;;;;;;;5036729;28;20064;-76
2023/01/21 12:13:21;;;;;;;3.45;2.60;;;;;;;;;;5036855;28;20029;-77
2023/01/21 12:16:06;;;;;;;2.65;2.38;;;;;;;;;;5037763;28;20029;-77
2023/01/21 12:18:35;;;;;;;4.07;2.72;;;;;;;;;;5038694;28;20037;-77
2023/01/21 12:21:04;;;;;;;5.22;2.00;;;;;;;;;;5039425;28;20136;-77
2023/01/21 12:23:49;;;;;;;2.25;1.92;;;;;;;;;;5041275;28;20082;-76
2023/01/21 12:26:18;;;;;;;6.05;2.40;;;;;;;;;;5038528;28;20087;-78
2023/01/21 12:28:54;;;;;;;2.78;2.33;;;;;;;;;;5042197;28;20447;-76
2023/01/21 12:31:25;;;;;;;3.15;1.70;;;;;;;;;;5038132;28;20481;-77
2023/01/21 12:34:06;;;;;;;11.35;2.50;;;;;;;;;;5043232;28;20029;-77
2023/01/21 12:36:35;;;;;;;3.60;2.40;;;;;;;;;;5044921;28;20033;-77
2023/01/21 12:39:13;;;;;;;4.80;3.00;;;;;;;;;;5044762;28;20053;-78
2023/01/21 12:41:41;;;;;;;4.45;2.58;;;;;;;;;;5051946;28;20029;-77
2023/01/21 12:44:13;;;;;;;3.65;2.03;;;;;;;;;;5040790;28;20029;-77
2023/01/21 12:46:43;;;;;;;4.03;2.20;;;;;;;;;;5037164;28;20044;-77
2023/01/21 12:49:22;;;;;;;3.55;2.28;;;;;;;;;;5041956;28;20040;-76
2023/01/21 12:51:55;;;;;;;4.57;2.30;;;;;;;;;;5032545;28;20037;-77
2023/01/21 12:54:35;;;;;;;2.55;2.17;;;;;;;;;;5036020;28;20040;-77
2023/01/21 12:57:20;;;;;;;4.00;2.03;;;;;;;;;;5040503;28;20061;-76
2023/01/21 12:59:52;;;;;;;4.85;2.50;;;;;;;;;;5041312;28;20150;-77
2023/01/21 13:02:45;;;;;;;5.10;2.50;;;;;;;;;;5041041;28;20036;-77
2023/01/21 13:05:22;;;;;;;3.00;2.30;;;;;;;;;;5040674;28;20041;-77
2023/01/21 13:08:07;;;;;;;5.00;2.10;;;;;;;;;;5038196;28;20025;-77
2023/01/21 13:10:33;;;;;;;3.28;2.25;;;;;;;;;;5038889;28;20444;-78
2023/01/21 13:13:16;;;;;;;4.75;2.40;;;;;;;;;;5042267;28;20078;-78
2023/01/21 13:15:43;;;;;;;3.42;2.47;;;;;;;;;;5037540;28;20037;-77
2023/01/21 13:18:13;;;;;;;7.30;2.60;;;;;;;;;;5039224;28;20036;-79
2023/01/21 13:20:43;;;;;;;3.58;2.33;;;;;;;;;;5038155;28;20056;-75
2023/01/21 13:23:12;;;;;;;4.18;2.25;;;;;;;;;;5043103;28;20086;-78
2023/01/21 13:25:46;;;;;;;5.63;2.55;;;;;;;;;;5034997;28;20036;-76
2023/01/21 13:28:12;;;;;;;7.72;3.50;;;;;;;;;;5035289;28;20032;-76
2023/01/21 13:31:04;;;;;;;4.07;2.67;;;;;;;;;;5035657;28;20033;-76
2023/01/21 13:33:42;;;;;;;8.35;3.72;;;;;;;;;;5033491;28;20048;-77
2023/01/21 13:36:20;;;;;;;7.95;3.28;;;;;;;;;;5039033;28;20025;-77
2023/01/21 13:39:04;;;;;;;3.03;2.33;;;;;;;;;;5038389;28;20047;-76
2023/01/21 13:41:53;;;;;;;7.30;2.72;;;;;;;;;;5044153;28;20421;-76
2023/01/21 13:44:19;;;;;;;3.85;2.40;;;;;;;;;;5041166;28;20056;-78
2023/01/21 13:47:00;;;;;;;8.93;3.20;;;;;;;;;;5038657;28;20438;-76
2023/01/21 13:49:32;;;;;;;4.45;2.50;;;;;;;;;;5042551;28;20024;-78
2023/01/21 13:52:13;;;;;;;6.50;2.85;;;;;;;;;;5045958;28;20037;-77
2023/01/21 13:54:45;;;;;;;3.90;3.08;;;;;;;;;;5042594;28;20037;-77
2023/01/21 13:57:14;;;;;;;6.47;2.97;;;;;;;;;;5042117;28;20033;-77
2023/01/21 14:00:04;;;;;;;7.07;2.97;;;;;;;;;;5044030;28;20163;-77
2023/01/21 14:02:39;;;;;;;7.45;3.17;;;;;;;;;;5039657;28;20111;-77
2023/01/21 14:05:11;;;;;;;6.07;3.17;;;;;;;;;;5043949;28;20036;-77
2023/01/21 14:07:43;;;;;;;6.05;3.53;;;;;;;;;;5041967;28;20029;-78
2023/01/21 14:10:13;;;;;;;4.68;3.17;;;;;;;;;;5043725;28;20028;-79
2023/01/21 14:12:42;;;;;;;5.57;3.05;;;;;;;;;;5042188;28;20025;-78
2023/01/21 14:15:18;;;;;;;4.45;2.75;;;;;;;;;;5040857;28;20020;-77
2023/01/21 14:17:47;;;;;;;6.55;3.08;;;;;;;;;;5041710;28;20558;-77
2023/01/21 14:20:19;;;;;;;5.60;3.33;;;;;;;;;;5044193;28;20053;-77
2023/01/21 14:23:04;;;;;;;8.68;4.25;;;;;;;;;;5043613;28;20559;-78
2023/01/21 14:25:30;;;;;;;6.97;2.70;;;;;;;;;;5041009;28;20025;-77
2023/01/21 14:28:06;;;;;;;5.10;2.72;;;;;;;;;;5042222;28;20033;-77
2023/01/21 14:31:11;;;;;;;6.75;3.25;;;;;;;;;;5043802;28;20060;-77
2023/01/21 14:33:43;;;;;;;7.47;4.05;;;;;;;;;;5006330;28;20144;-78
2023/01/21 14:36:22;;;;;;;10.07;3.05;;;;;;;;;;5004767;28;20049;-78
2023/01/21 14:39:03;;;;;;;4.57;3.90;;;;;;;;;;5020757;28;21389;-77
2023/01/21 14:41:48;;;;;;;6.10;3.75;;;;;;;;;;5042056;28;20035;-78
2023/01/21 14:44:35;;;;;;;4.97;2.80;;;;;;;;;;5040385;28;20043;-76
2023/01/21 14:47:21;;;;;;;9.25;3.95;;;;;;;;;;5043462;28;20107;-78
2023/01/21 14:49:54;;;;;;;7.18;4.93;;;;;;;;;;5041985;28;20075;-78
2023/01/21 14:52:34;;;;;;;6.88;3.30;;;;;;;;;;5041962;28;20490;-77
2023/01/21 14:55:00;;;;;;;7.40;4.15;;;;;;;;;;5042941;28;20798;-78
2023/01/21 14:57:35;;;;;;;5.65;3.65;;;;;;;;;;5044457;28;20849;-78
2023/01/21 15:00:10;;;;;;;5.60;3.30;;;;;;;;;;5040768;28;20104;-76
2023/01/21 15:02:38;;;;;;;6.00;2.88;;;;;;;;;;5041847;28;20029;-77